KDHT/DHT METAR and TAF weather

Enter ICAO airport designator
Station Type Date Time Source
KDHT METAR 2019/04/18 20:53 UTC NOAA

KDHT 182053Z AUTO 01014G23KT 10SM FEW065 18/00 A3009 RMK AO2 PK WND 36027/2039 SLP161 T01830000 57018


Station Type Date Time Source
KDHT Decoded METAR 2019/04/18 20:53 UTC NOAA

DALHART MUNICIPAL AIRPORT, TX, United States (KDHT) 36-01N 102-33W 1217M
Apr 18, 2019 - 04:53 PM EDT / 2019.04.18 2053 UTC
Wind: from the N (010 degrees) at 16 MPH (14 KT) gusting to 26 MPH (23 KT):0
Visibility: 10 mile(s):0
Sky conditions: mostly clear
Temperature: 64.9 F (18.3 C)
Dew Point: 32.0 F (0.0 C)
Relative Humidity: 29%
Pressure (altimeter): 30.09 in. Hg (1018 hPa)
Pressure tendency: 0.05 inches (1.8 hPa) lower than three hours ago
ob: KDHT 182053Z AUTO 01014G23KT 10SM FEW065 18/00 A3009 RMK AO2 PK WND 36027/2039 SLP161 T01830000 57018
cycle: 21

Station Type Date Time Source
KDHT TAF 2019/04/18 18:22 UTC NOAA

TAF KDHT 181720Z 1818/1918 35017G26KT P6SM FEW200
FM190100 36012KT P6SM FEW250
FM190600 30007KT P6SM SKC

Example: see airport list